sensor_id;sensor_type;location;lat;lon;timestamp;temperature;humidity
1524;DHT22;755;53.658;10.118;2024-01-30T00:04:22;3.70;99.90
1524;DHT22;755;53.658;10.118;2024-01-30T00:14:24;3.70;99.90
1524;DHT22;755;53.658;10.118;2024-01-30T00:24:28;3.60;99.90
1524;DHT22;755;53.658;10.118;2024-01-30T00:34:30;3.40;99.90
1524;DHT22;755;53.658;10.118;2024-01-30T00:44:36;3.50;99.90
1524;DHT22;755;53.658;10.118;2024-01-30T00:54:39;3.50;99.90
1524;DHT22;755;53.658;10.118;2024-01-30T01:04:42;3.50;99.90
1524;DHT22;755;53.658;10.118;2024-01-30T01:14:44;3.30;99.90
1524;DHT22;755;53.658;10.118;2024-01-30T01:24:48;3.20;99.90
1524;DHT22;755;53.658;10.118;2024-01-30T01:34:49;3.20;99.90
1524;DHT22;755;53.658;10.118;2024-01-30T01:44:53;3.30;99.90
1524;DHT22;755;53.658;10.118;2024-01-30T01:54:55;3.40;99.90
1524;DHT22;755;53.658;10.118;2024-01-30T02:04:58;3.50;99.90
1524;DHT22;755;53.658;10.118;2024-01-30T02:15:01;3.60;99.90
1524;DHT22;755;53.658;10.118;2024-01-30T02:25:05;3.60;99.90
1524;DHT22;755;53.658;10.118;2024-01-30T02:35:07;3.60;99.90
1524;DHT22;755;53.658;10.118;2024-01-30T02:45:12;3.70;99.90
1524;DHT22;755;53.658;10.118;2024-01-30T02:55:14;3.70;99.90
1524;DHT22;755;53.658;10.118;2024-01-30T03:05:19;3.70;99.90
1524;DHT22;755;53.658;10.118;2024-01-30T03:15:21;3.60;99.90
1524;DHT22;755;53.658;10.118;2024-01-30T03:25:25;3.70;99.90
1524;DHT22;755;53.658;10.118;2024-01-30T03:35:27;3.70;99.90
1524;DHT22;755;53.658;10.118;2024-01-30T03:45:30;3.80;99.90
1524;DHT22;755;53.658;10.118;2024-01-30T03:55:32;3.80;99.90
1524;DHT22;755;53.658;10.118;2024-01-30T04:05:35;3.80;99.90
1524;DHT22;755;53.658;10.118;2024-01-30T04:15:38;3.80;99.90
1524;DHT22;755;53.658;10.118;2024-01-30T04:25:41;3.80;99.90
1524;DHT22;755;53.658;10.118;2024-01-30T04:35:43;3.70;99.90
1524;DHT22;755;53.658;10.118;2024-01-30T04:45:47;3.60;99.90
1524;DHT22;755;53.658;10.118;2024-01-30T04:55:49;3.50;99.90
1524;DHT22;755;53.658;10.118;2024-01-30T05:05:52;3.40;99.90
1524;DHT22;755;53.658;10.118;2024-01-30T05:15:54;3.30;99.90
1524;DHT22;755;53.658;10.118;2024-01-30T05:25:59;3.40;99.90
1524;DHT22;755;53.658;10.118;2024-01-30T05:36:02;3.30;99.90
1524;DHT22;755;53.658;10.118;2024-01-30T05:46:06;3.30;99.90
1524;DHT22;755;53.658;10.118;2024-01-30T05:56:08;3.40;99.90
1524;DHT22;755;53.658;10.118;2024-01-30T06:06:12;3.50;99.90
1524;DHT22;755;53.658;10.118;2024-01-30T06:16:14;3.60;99.90
1524;DHT22;755;53.658;10.118;2024-01-30T06:26:17;3.60;99.90
1524;DHT22;755;53.658;10.118;2024-01-30T06:36:19;3.70;99.90
1524;DHT22;755;53.658;10.118;2024-01-30T06:46:23;3.70;99.90
1524;DHT22;755;53.658;10.118;2024-01-30T06:56:25;3.90;99.90
1524;DHT22;755;53.658;10.118;2024-01-30T07:06:29;3.90;99.90
1524;DHT22;755;53.658;10.118;2024-01-30T07:16:31;4.00;99.90
1524;DHT22;755;53.658;10.118;2024-01-30T07:26:34;4.00;99.90
1524;DHT22;755;53.658;10.118;2024-01-30T07:36:37;3.90;99.90
1524;DHT22;755;53.658;10.118;2024-01-30T07:46:40;4.00;99.90
1524;DHT22;755;53.658;10.118;2024-01-30T07:56:42;4.00;99.90
1524;DHT22;755;53.658;10.118;2024-01-30T08:06:46;4.20;99.90
1524;DHT22;755;53.658;10.118;2024-01-30T08:16:48;4.30;99.90
1524;DHT22;755;53.658;10.118;2024-01-30T08:26:52;4.50;99.90
1524;DHT22;755;53.658;10.118;2024-01-30T08:36:54;4.60;99.90
1524;DHT22;755;53.658;10.118;2024-01-30T08:46:57;4.90;99.90
1524;DHT22;755;53.658;10.118;2024-01-30T08:56:59;5.20;99.90
1524;DHT22;755;53.658;10.118;2024-01-30T09:07:03;5.40;99.90
1524;DHT22;755;53.658;10.118;2024-01-30T09:17:06;5.60;99.90
1524;DHT22;755;53.658;10.118;2024-01-30T09:27:10;5.90;99.90
1524;DHT22;755;53.658;10.118;2024-01-30T09:37:12;6.10;99.90
1524;DHT22;755;53.658;10.118;2024-01-30T09:47:17;6.30;99.90
1524;DHT22;755;53.658;10.118;2024-01-30T09:57:19;6.60;99.90
1524;DHT22;755;53.658;10.118;2024-01-30T10:07:23;6.60;99.90
1524;DHT22;755;53.658;10.118;2024-01-30T10:17:26;6.80;99.90
1524;DHT22;755;53.658;10.118;2024-01-30T10:27:29;7.00;99.90
1524;DHT22;755;53.658;10.118;2024-01-30T10:37:31;7.20;99.90
1524;DHT22;755;53.658;10.118;2024-01-30T10:47:36;7.30;26.00
1524;DHT22;755;53.658;10.118;2024-01-30T10:57:38;7.50;1.00
1524;DHT22;755;53.658;10.118;2024-01-30T11:07:42;7.70;1.00
1524;DHT22;755;53.658;10.118;2024-01-30T11:17:45;7.80;1.00
1524;DHT22;755;53.658;10.118;2024-01-30T11:27:50;7.90;1.00
1524;DHT22;755;53.658;10.118;2024-01-30T11:37:52;8.00;1.00
1524;DHT22;755;53.658;10.118;2024-01-30T11:47:57;8.10;1.00
1524;DHT22;755;53.658;10.118;2024-01-30T11:58:01;8.10;1.00
1524;DHT22;755;53.658;10.118;2024-01-30T12:08:05;8.10;1.00
1524;DHT22;755;53.658;10.118;2024-01-30T12:18:08;8.20;1.00
1524;DHT22;755;53.658;10.118;2024-01-30T12:28:12;8.20;1.00
1524;DHT22;755;53.658;10.118;2024-01-30T12:38:14;8.20;1.00
1524;DHT22;755;53.658;10.118;2024-01-30T12:48:17;8.30;1.00
1524;DHT22;755;53.658;10.118;2024-01-30T12:58:20;8.40;1.00
1524;DHT22;755;53.658;10.118;2024-01-30T13:08:23;8.50;1.00
1524;DHT22;755;53.658;10.118;2024-01-30T13:18:25;8.60;1.00
1524;DHT22;755;53.658;10.118;2024-01-30T13:28:28;8.70;1.00
1524;DHT22;755;53.658;10.118;2024-01-30T13:38:31;8.80;1.00
1524;DHT22;755;53.658;10.118;2024-01-30T13:48:34;8.90;36.90
1524;DHT22;755;53.658;10.118;2024-01-30T13:58:36;9.00;99.90
1524;DHT22;755;53.658;10.118;2024-01-30T14:08:40;9.10;99.90
1524;DHT22;755;53.658;10.118;2024-01-30T14:18:43;9.10;99.90
1524;DHT22;755;53.658;10.118;2024-01-30T14:28:46;9.20;99.90
1524;DHT22;755;53.658;10.118;2024-01-30T14:38:48;9.30;99.90
1524;DHT22;755;53.658;10.118;2024-01-30T14:48:53;9.30;99.90
1524;DHT22;755;53.658;10.118;2024-01-30T14:58:55;9.30;99.90
1524;DHT22;755;53.658;10.118;2024-01-30T15:08:59;9.40;99.90
1524;DHT22;755;53.658;10.118;2024-01-30T15:19:01;9.40;99.90
1524;DHT22;755;53.658;10.118;2024-01-30T15:29:06;9.50;99.90
1524;DHT22;755;53.658;10.118;2024-01-30T15:39:12;9.50;99.90
1524;DHT22;755;53.658;10.118;2024-01-30T15:49:17;9.60;99.90
1524;DHT22;755;53.658;10.118;2024-01-30T15:59:19;9.70;99.90
1524;DHT22;755;53.658;10.118;2024-01-30T16:09:23;9.60;99.90
1524;DHT22;755;53.658;10.118;2024-01-30T16:19:26;9.60;99.90
1524;DHT22;755;53.658;10.118;2024-01-30T16:29:30;9.60;99.90
1524;DHT22;755;53.658;10.118;2024-01-30T16:39:32;9.50;99.90
1524;DHT22;755;53.658;10.118;2024-01-30T16:49:36;9.60;99.90
1524;DHT22;755;53.658;10.118;2024-01-30T16:59:38;9.60;99.90
1524;DHT22;755;53.658;10.118;2024-01-30T17:09:41;9.70;99.90
1524;DHT22;755;53.658;10.118;2024-01-30T17:19:43;9.70;99.90
1524;DHT22;755;53.658;10.118;2024-01-30T17:29:47;9.80;99.90
1524;DHT22;755;53.658;10.118;2024-01-30T17:39:49;9.80;99.90
1524;DHT22;755;53.658;10.118;2024-01-30T17:49:52;9.90;99.90
1524;DHT22;755;53.658;10.118;2024-01-30T17:59:55;10.00;99.90
1524;DHT22;755;53.658;10.118;2024-01-30T18:09:58;9.90;99.90
1524;DHT22;755;53.658;10.118;2024-01-30T18:20:00;9.70;99.90
1524;DHT22;755;53.658;10.118;2024-01-30T18:30:05;9.70;99.90
1524;DHT22;755;53.658;10.118;2024-01-30T18:40:08;9.60;1.00
1524;DHT22;755;53.658;10.118;2024-01-30T18:50:12;9.50;1.00
1524;DHT22;755;53.658;10.118;2024-01-30T19:00:15;9.60;99.90
1524;DHT22;755;53.658;10.118;2024-01-30T19:10:19;9.50;99.90
1524;DHT22;755;53.658;10.118;2024-01-30T19:20:21;9.60;1.00
1524;DHT22;755;53.658;10.118;2024-01-30T19:30:25;9.50;1.00
1524;DHT22;755;53.658;10.118;2024-01-30T19:40:28;9.50;19.60
1524;DHT22;755;53.658;10.118;2024-01-30T19:50:31;9.50;99.90
1524;DHT22;755;53.658;10.118;2024-01-30T20:00:33;9.40;99.90
1524;DHT22;755;53.658;10.118;2024-01-30T20:10:37;9.20;1.00
1524;DHT22;755;53.658;10.118;2024-01-30T20:20:39;9.20;1.00
1524;DHT22;755;53.658;10.118;2024-01-30T20:30:45;9.10;1.00
1524;DHT22;755;53.658;10.118;2024-01-30T20:40:48;8.90;99.90
1524;DHT22;755;53.658;10.118;2024-01-30T20:50:51;8.90;99.90
1524;DHT22;755;53.658;10.118;2024-01-30T21:00:55;8.80;99.90
1524;DHT22;755;53.658;10.118;2024-01-30T21:10:58;8.70;99.90
1524;DHT22;755;53.658;10.118;2024-01-30T21:21:03;8.60;99.90
1524;DHT22;755;53.658;10.118;2024-01-30T21:31:08;8.50;99.90
1524;DHT22;755;53.658;10.118;2024-01-30T21:41:10;8.20;99.90
1524;DHT22;755;53.658;10.118;2024-01-30T21:51:14;8.10;99.90
1524;DHT22;755;53.658;10.118;2024-01-30T22:01:18;7.80;99.90
1524;DHT22;755;53.658;10.118;2024-01-30T22:11:21;7.80;99.90
1524;DHT22;755;53.658;10.118;2024-01-30T22:21:24;7.60;99.90
1524;DHT22;755;53.658;10.118;2024-01-30T22:31:28;7.60;99.90
1524;DHT22;755;53.658;10.118;2024-01-30T22:41:33;7.40;99.90
1524;DHT22;755;53.658;10.118;2024-01-30T23:02:53;6.90;99.90
1524;DHT22;755;53.658;10.118;2024-01-30T23:13:01;6.80;99.90
1524;DHT22;755;53.658;10.118;2024-01-30T23:34:20;6.50;99.90
1524;DHT22;755;53.658;10.118;2024-01-30T23:44:27;6.40;99.90
